createdAt,value
2023-03-05T00:00:19.048Z,74.53
2023-03-05T00:02:45.436Z,75.96
2023-03-05T00:05:11.957Z,76.74
2023-03-05T00:07:38.298Z,77.28
2023-03-05T00:10:06.147Z,78.80
2023-03-05T00:12:32.594Z,78.82
2023-03-05T00:14:58.982Z,78.45
2023-03-05T00:17:25.341Z,78.15
2023-03-05T00:19:51.720Z,79.10
2023-03-05T00:22:18.076Z,79.09
2023-03-05T00:24:44.468Z,80.43
2023-03-05T00:27:10.809Z,80.30
2023-03-05T00:29:37.201Z,80.16
2023-03-05T00:32:03.668Z,79.44
2023-03-05T00:34:30.066Z,79.27
2023-03-05T00:36:56.435Z,78.93
2023-03-05T00:39:22.784Z,79.10
2023-03-05T00:41:49.964Z,78.94
2023-03-05T00:44:16.501Z,78.49
2023-03-05T00:46:42.899Z,78.80
2023-03-05T00:49:09.308Z,77.80
2023-03-05T00:51:35.748Z,77.66
2023-03-05T00:54:02.878Z,76.63
2023-03-05T00:56:29.250Z,76.26
2023-03-05T00:58:56.632Z,75.92
2023-03-05T01:01:23.618Z,75.25
2023-03-05T01:03:50.087Z,74.90
2023-03-05T01:06:18.550Z,74.18
2023-03-05T01:08:45.311Z,74.03
2023-03-05T01:11:12.550Z,73.49
2023-03-05T01:13:38.950Z,72.93
2023-03-05T01:16:05.823Z,71.69
2023-03-05T01:18:32.283Z,72.22
2023-03-05T01:20:58.674Z,71.29
2023-03-05T01:23:25.038Z,70.44
2023-03-05T01:25:59.311Z,70.47
2023-03-05T01:28:26.472Z,69.93
2023-03-05T01:30:52.834Z,68.46
2023-03-05T01:33:19.730Z,67.55
2023-03-05T01:35:47.954Z,67.53
2023-03-05T01:38:15.108Z,67.30
2023-03-05T01:40:42.813Z,66.52
2023-03-05T01:43:12.099Z,66.01
2023-03-05T01:45:58.940Z,66.01
2023-03-05T01:48:26.332Z,65.77
2023-03-05T01:50:52.708Z,65.61
2023-03-05T01:53:19.322Z,64.92
2023-03-05T01:55:45.789Z,65.58
2023-03-05T01:58:13.639Z,64.96
2023-03-05T02:00:46.869Z,64.20
2023-03-05T02:03:14.192Z,63.23
2023-03-05T02:05:44.326Z,64.02
2023-03-05T02:08:13.758Z,63.81
2023-03-05T02:10:52.637Z,63.27
2023-03-05T02:13:22.679Z,63.00
2023-03-05T02:15:50.354Z,62.45
2023-03-05T02:18:18.277Z,62.46
2023-03-05T02:20:50.507Z,61.63
2023-03-05T02:23:19.052Z,62.44
2023-03-05T02:25:45.550Z,61.70
2023-03-05T02:28:25.769Z,62.15
2023-03-05T02:30:52.446Z,61.87
2023-03-05T02:33:20.333Z,61.58
2023-03-05T02:35:46.734Z,61.72
2023-03-05T02:38:15.172Z,61.77
2023-03-05T02:40:41.538Z,61.71
2023-03-05T02:43:08.018Z,61.50
2023-03-05T02:45:34.587Z,61.69
2023-03-05T02:48:01.096Z,61.56
2023-03-05T02:50:28.537Z,61.46
2023-03-05T02:52:54.936Z,61.48
2023-03-05T02:55:21.438Z,61.38
2023-03-05T02:57:47.948Z,61.62
2023-03-05T03:00:14.828Z,61.64
2023-03-05T03:02:41.266Z,61.96
2023-03-05T03:05:08.162Z,61.88
2023-03-05T03:07:36.467Z,62.09
2023-03-05T03:10:04.291Z,62.07
2023-03-05T03:12:30.643Z,62.28
2023-03-05T03:14:57.108Z,62.07
2023-03-05T03:17:23.462Z,62.35
2023-03-05T03:19:49.840Z,62.22
2023-03-05T03:22:16.278Z,62.24
2023-03-05T03:24:43.836Z,62.53
2023-03-05T03:27:10.662Z,62.97
2023-03-05T03:29:37.298Z,62.59
2023-03-05T03:32:04.644Z,62.75
2023-03-05T03:34:31.043Z,62.41
2023-03-05T03:36:57.424Z,62.71
2023-03-05T03:39:25.445Z,63.02
2023-03-05T03:41:53.230Z,63.21
2023-03-05T03:44:20.978Z,62.98
2023-03-05T03:46:48.740Z,63.35
2023-03-05T03:49:23.355Z,63.65
2023-03-05T03:51:51.410Z,64.01
2023-03-05T03:54:18.704Z,64.57
2023-03-05T03:56:45.912Z,64.78
2023-03-05T03:59:13.392Z,65.31
2023-03-05T04:01:40.185Z,65.40
2023-03-05T04:04:07.216Z,65.85
2023-03-05T04:06:34.383Z,66.22
2023-03-05T04:09:00.772Z,66.44
2023-03-05T04:11:27.144Z,66.94
2023-03-05T04:13:53.486Z,66.97
2023-03-05T04:16:19.856Z,67.16
2023-03-05T04:18:46.588Z,67.50
2023-03-05T04:21:13.376Z,67.33
2023-03-05T04:23:39.775Z,68.02
2023-03-05T04:26:06.502Z,68.24
2023-03-05T04:28:33.376Z,68.47
2023-03-05T04:30:59.944Z,68.57
2023-03-05T04:33:26.417Z,68.64
2023-03-05T04:35:53.073Z,69.03
2023-03-05T04:38:19.456Z,68.89
2023-03-05T04:40:46.338Z,69.30
2023-03-05T04:43:12.717Z,69.52
2023-03-05T04:45:40.596Z,69.62
2023-03-05T04:48:08.158Z,69.73
2023-03-05T04:50:34.707Z,69.94
2023-03-05T04:53:01.527Z,70.27
2023-03-05T04:55:27.998Z,70.37
2023-03-05T04:57:54.365Z,70.26
2023-03-05T05:00:21.701Z,70.24
2023-03-05T05:02:50.249Z,70.48
2023-03-05T05:05:19.712Z,70.73
2023-03-05T05:07:46.174Z,70.67
2023-03-05T05:10:13.610Z,70.94
2023-03-05T05:12:39.997Z,71.10
2023-03-05T05:15:07.943Z,70.90
2023-03-05T05:17:34.910Z,71.21
2023-03-05T05:20:01.940Z,71.64
2023-03-05T05:22:29.213Z,71.75
2023-03-05T05:24:56.364Z,71.71
2023-03-05T05:27:22.795Z,72.15
2023-03-05T05:29:52.896Z,71.94
2023-03-05T05:32:20.936Z,72.32
2023-03-05T05:34:47.351Z,72.23
2023-03-05T05:37:13.706Z,72.29
2023-03-05T05:39:40.077Z,71.97
2023-03-05T05:42:06.767Z,72.50
2023-03-05T05:44:34.835Z,72.84
2023-03-05T05:47:01.606Z,72.86
2023-03-05T05:49:27.981Z,72.59
2023-03-05T05:51:54.458Z,72.69
2023-03-05T05:54:20.805Z,72.66
2023-03-05T05:56:47.168Z,72.54
2023-03-05T05:59:13.531Z,72.80
2023-03-05T06:01:39.969Z,72.85
2023-03-05T06:04:06.376Z,72.67
2023-03-05T06:06:34.873Z,72.42
2023-03-05T06:09:01.770Z,72.49
2023-03-05T06:11:28.194Z,73.27
2023-03-05T06:13:54.732Z,72.69
2023-03-05T06:16:23.981Z,72.53
2023-03-05T06:18:51.954Z,72.37
2023-03-05T06:21:20.338Z,72.41
2023-03-05T06:23:47.766Z,72.31
2023-03-05T06:26:17.802Z,72.17
2023-03-05T06:28:44.291Z,72.21
2023-03-05T06:31:13.363Z,72.17
2023-03-05T06:33:40.738Z,71.89
2023-03-05T06:36:09.692Z,71.84
2023-03-05T06:38:36.665Z,71.47
2023-03-05T06:41:06.094Z,71.06
2023-03-05T06:43:33.504Z,71.15
2023-03-05T06:46:07.790Z,71.21
2023-03-05T06:48:34.771Z,70.24
2023-03-05T06:51:01.316Z,70.50
2023-03-05T06:53:27.814Z,70.35
2023-03-05T06:55:54.213Z,70.31
2023-03-05T06:58:21.662Z,69.75
2023-03-05T07:00:48.139Z,69.96
2023-03-05T07:03:14.582Z,69.50
2023-03-05T07:05:41.827Z,69.12
2023-03-05T07:08:08.595Z,68.52
2023-03-05T07:10:40.253Z,68.82
2023-03-05T07:13:07.504Z,68.47
2023-03-05T07:15:34.288Z,68.22
2023-03-05T07:18:00.677Z,67.87
2023-03-05T07:20:27.097Z,68.13
2023-03-05T07:22:53.457Z,67.85
2023-03-05T07:25:21.535Z,67.36
2023-03-05T07:27:48.579Z,67.39
2023-03-05T07:30:15.171Z,67.23
2023-03-05T07:32:41.589Z,66.94
2023-03-05T07:35:08.279Z,66.80
2023-03-05T07:37:34.822Z,66.93
2023-03-05T07:40:01.317Z,66.88
2023-03-05T07:42:27.827Z,66.49
2023-03-05T07:44:54.431Z,66.68
2023-03-05T07:47:20.824Z,66.27
2023-03-05T07:49:47.204Z,66.29
2023-03-05T07:52:13.635Z,66.10
2023-03-05T07:54:40.001Z,66.03
2023-03-05T07:57:08.241Z,66.07
2023-03-05T07:59:35.247Z,66.15
2023-03-05T08:02:01.650Z,66.26
2023-03-05T08:04:29.882Z,66.26
2023-03-05T08:06:56.268Z,65.53
2023-03-05T08:09:22.632Z,65.20
2023-03-05T08:11:49.016Z,64.59
2023-03-05T08:14:15.430Z,64.31
2023-03-05T08:16:41.836Z,63.26
2023-03-05T08:19:10.559Z,62.60
2023-03-05T08:21:36.940Z,63.45
2023-03-05T08:24:06.205Z,63.06
2023-03-05T08:26:34.599Z,62.36
2023-03-05T08:29:01.018Z,61.95
2023-03-05T08:31:30.162Z,60.81
2023-03-05T08:33:58.792Z,59.30
2023-03-05T08:36:25.220Z,59.44
2023-03-05T08:38:51.709Z,59.38
2023-03-05T08:41:19.229Z,59.10
2023-03-05T08:43:45.841Z,58.94
2023-03-05T08:46:13.129Z,58.56
2023-03-05T08:48:40.097Z,58.84
2023-03-05T08:51:18.998Z,57.09
2023-03-05T08:53:46.573Z,57.03
2023-03-05T08:56:14.118Z,57.14
2023-03-05T08:58:40.475Z,57.18
2023-03-05T09:01:06.930Z,56.92
2023-03-05T09:03:33.631Z,57.48
2023-03-05T09:06:05.822Z,57.17
2023-03-05T09:08:32.483Z,56.91
2023-03-05T09:10:58.843Z,57.02
2023-03-05T09:13:25.352Z,55.60
2023-03-05T09:15:59.945Z,55.57
2023-03-05T09:18:26.802Z,54.45
2023-03-05T09:20:54.172Z,53.39
2023-03-05T09:23:20.697Z,52.70
2023-03-05T09:25:47.353Z,52.69
2023-03-05T09:28:13.704Z,53.55
2023-03-05T09:30:40.121Z,52.89
2023-03-05T09:33:06.541Z,54.16
2023-03-05T09:35:37.003Z,53.92
2023-03-05T09:38:04.465Z,54.46
2023-03-05T09:40:43.087Z,54.25
2023-03-05T09:43:21.268Z,53.78
2023-03-05T09:46:01.327Z,53.97
2023-03-05T09:48:50.954Z,53.80
2023-03-05T09:51:27.678Z,53.20
2023-03-05T09:54:01.685Z,53.85
2023-03-05T09:56:36.685Z,53.69
2023-03-05T09:59:19.985Z,54.31
2023-03-05T10:01:48.902Z,53.84
2023-03-05T10:04:25.798Z,53.18
2023-03-05T10:07:12.247Z,53.16
2023-03-05T10:09:45.789Z,53.66
2023-03-05T10:12:42.701Z,53.33
2023-03-05T10:15:14.695Z,53.52
2023-03-05T10:18:14.106Z,53.21
2023-03-05T10:20:56.149Z,53.48
2023-03-05T10:23:29.465Z,53.49
2023-03-05T10:26:21.165Z,52.95
2023-03-05T10:28:57.488Z,53.81
2023-03-05T10:31:36.120Z,54.21
2023-03-05T10:34:21.157Z,56.26
2023-03-05T10:37:16.419Z,60.80
2023-03-05T10:40:02.595Z,62.87
2023-03-05T10:43:00.660Z,63.43
2023-03-05T10:45:36.432Z,64.44
2023-03-05T10:48:15.344Z,64.87
2023-03-05T10:50:48.782Z,62.80
2023-03-05T10:53:27.530Z,62.19
2023-03-05T10:55:56.483Z,61.50
2023-03-05T10:58:24.825Z,61.02
2023-03-05T11:01:24.314Z,61.22
2023-03-05T11:03:58.672Z,60.43
2023-03-05T11:06:40.890Z,61.06
2023-03-05T11:09:29.209Z,60.49
2023-03-05T11:12:20.358Z,60.30
2023-03-05T11:15:03.164Z,60.47
2023-03-05T11:17:37.754Z,59.93
2023-03-05T11:20:29.222Z,59.23
2023-03-05T11:23:06.557Z,59.22
2023-03-05T11:25:34.800Z,59.96
2023-03-05T11:28:03.023Z,58.64
2023-03-05T11:30:31.261Z,57.97
2023-03-05T11:33:10.607Z,58.08
2023-03-05T11:35:40.101Z,57.89
2023-03-05T11:38:14.875Z,57.52
2023-03-05T11:40:41.332Z,57.19
2023-03-05T11:43:15.580Z,57.01
2023-03-05T11:45:43.386Z,57.38
2023-03-05T11:48:19.824Z,57.26
2023-03-05T11:50:51.991Z,56.75
2023-03-05T11:53:29.395Z,55.97
2023-03-05T11:56:05.212Z,56.44
2023-03-05T11:58:40.966Z,58.04
2023-03-05T12:01:15.309Z,56.78
2023-03-05T12:03:42.538Z,58.12
2023-03-05T12:06:17.809Z,60.10
2023-03-05T12:08:53.628Z,58.98
2023-03-05T12:11:28.487Z,58.66
2023-03-05T12:14:21.688Z,59.05
2023-03-05T12:17:07.617Z,57.95
2023-03-05T12:19:45.871Z,57.33
2023-03-05T12:22:19.952Z,57.23
2023-03-05T12:24:47.430Z,53.45
2023-03-05T12:27:16.459Z,53.34
2023-03-05T12:29:44.403Z,53.53
2023-03-05T12:32:23.148Z,53.14
2023-03-05T12:35:10.626Z,53.01
2023-03-05T12:37:52.035Z,52.66
2023-03-05T12:40:48.075Z,52.97
2023-03-05T12:43:32.162Z,52.80
2023-03-05T12:46:25.081Z,52.69
2023-03-05T12:48:52.072Z,50.75
2023-03-05T12:51:40.613Z,50.85
2023-03-05T12:54:35.922Z,51.04
2023-03-05T12:57:27.680Z,51.01
2023-03-05T13:00:06.110Z,51.04
2023-03-05T13:02:38.388Z,50.71
2023-03-05T13:05:14.959Z,53.76
2023-03-05T13:07:41.368Z,53.90
2023-03-05T13:10:22.492Z,55.73
2023-03-05T13:12:52.996Z,56.47
2023-03-05T13:15:21.860Z,56.77
2023-03-05T13:18:03.462Z,56.27
2023-03-05T13:20:38.340Z,56.62
2023-03-05T13:23:38.183Z,55.39
2023-03-05T13:26:18.704Z,54.66
2023-03-05T13:29:09.176Z,56.34
2023-03-05T13:31:40.676Z,55.26
2023-03-05T13:34:20.461Z,56.56
2023-03-05T13:36:53.170Z,55.87
2023-03-05T13:39:43.860Z,55.18
2023-03-05T13:42:23.597Z,54.95
2023-03-05T13:45:06.881Z,54.49
2023-03-05T13:47:35.531Z,54.37
2023-03-05T13:50:05.838Z,55.21
2023-03-05T13:52:35.124Z,53.97
2023-03-05T13:55:03.841Z,55.07
2023-03-05T13:57:42.469Z,56.07
2023-03-05T14:00:31.987Z,57.41
2023-03-05T14:03:08.787Z,59.02
2023-03-05T14:05:35.260Z,59.98
2023-03-05T14:08:02.436Z,59.34
2023-03-05T14:10:37.595Z,59.58
2023-03-05T14:13:11.704Z,58.13
2023-03-05T14:15:38.296Z,56.31
2023-03-05T14:18:10.778Z,57.91
2023-03-05T14:20:38.959Z,58.76
2023-03-05T14:23:34.508Z,58.69
2023-03-05T14:26:32.542Z,58.77
2023-03-05T14:29:06.381Z,58.26
2023-03-05T14:31:50.938Z,58.31
2023-03-05T14:34:26.588Z,58.38
2023-03-05T14:36:55.581Z,57.71
2023-03-05T14:39:38.012Z,58.33
2023-03-05T14:42:26.869Z,58.71
2023-03-05T14:44:55.716Z,57.90
2023-03-05T14:47:26.236Z,57.96
2023-03-05T14:49:53.024Z,58.34
2023-03-05T14:52:22.913Z,58.30
2023-03-05T14:54:49.715Z,57.79
2023-03-05T14:57:23.594Z,57.35
2023-03-05T14:59:50.058Z,58.18
2023-03-05T15:02:18.572Z,57.67
2023-03-05T15:04:48.467Z,58.13
2023-03-05T15:07:41.641Z,57.94
2023-03-05T15:10:08.680Z,57.93
2023-03-05T15:12:35.091Z,57.58
2023-03-05T15:15:01.526Z,57.70
2023-03-05T15:17:37.159Z,57.72
2023-03-05T15:20:08.016Z,58.06
2023-03-05T15:22:34.554Z,58.30
2023-03-05T15:25:00.938Z,58.69
2023-03-05T15:27:27.506Z,58.85
2023-03-05T15:29:53.920Z,58.73
2023-03-05T15:32:20.339Z,57.87
2023-03-05T15:34:46.984Z,59.12
2023-03-05T15:37:13.422Z,59.03
2023-03-05T15:39:39.791Z,58.89
2023-03-05T15:42:06.632Z,58.88
2023-03-05T15:44:33.064Z,58.91
2023-03-05T15:46:59.423Z,59.32
2023-03-05T15:49:25.959Z,58.87
2023-03-05T15:51:52.485Z,59.51
2023-03-05T15:54:19.165Z,59.14
2023-03-05T15:56:45.546Z,59.33
2023-03-05T15:59:13.379Z,59.78
2023-03-05T16:01:43.556Z,60.28
2023-03-05T16:04:10.123Z,59.95
2023-03-05T16:06:36.914Z,59.45
2023-03-05T16:09:05.234Z,60.29
2023-03-05T16:11:35.140Z,60.70
2023-03-05T16:14:08.661Z,60.76
2023-03-05T16:16:35.466Z,60.42
2023-03-05T16:19:04.627Z,60.42
2023-03-05T16:21:31.647Z,60.25
2023-03-05T16:23:59.464Z,59.53
2023-03-05T16:26:25.872Z,59.78
2023-03-05T16:28:52.260Z,59.61
2023-03-05T16:31:18.638Z,59.84
2023-03-05T16:33:45.022Z,59.88
2023-03-05T16:36:11.314Z,59.76
2023-03-05T16:38:38.068Z,59.45
2023-03-05T16:41:08.863Z,59.73
2023-03-05T16:43:35.405Z,59.99
2023-03-05T16:46:01.762Z,60.51
2023-03-05T16:48:29.791Z,60.44
2023-03-05T16:50:57.742Z,60.95
2023-03-05T16:53:24.130Z,61.21
2023-03-05T16:55:50.520Z,61.69
2023-03-05T16:58:16.909Z,61.89
2023-03-05T17:00:43.379Z,62.34
2023-03-05T17:03:09.790Z,61.93
2023-03-05T17:05:37.233Z,62.32
2023-03-05T17:08:04.315Z,63.14
2023-03-05T17:10:31.318Z,62.63
2023-03-05T17:12:57.820Z,63.30
2023-03-05T17:15:24.265Z,63.18
2023-03-05T17:17:50.780Z,63.14
2023-03-05T17:24:23.409Z,63.73
2023-03-05T17:27:08.418Z,63.53
2023-03-05T17:32:46.243Z,63.26
2023-03-05T17:35:22.635Z,63.15
2023-03-05T17:37:49.957Z,63.33
2023-03-05T17:40:16.946Z,63.50
2023-03-05T17:42:43.426Z,63.58
2023-03-05T17:45:10.132Z,63.46
2023-03-05T17:47:36.840Z,63.95
2023-03-05T17:50:03.531Z,64.12
2023-03-05T17:52:30.166Z,63.88
2023-03-05T17:54:57.355Z,64.05
2023-03-05T17:57:24.321Z,64.79
2023-03-05T17:59:50.677Z,64.41
2023-03-05T18:02:17.071Z,64.75
2023-03-05T18:04:44.018Z,64.69
2023-03-05T18:07:10.629Z,65.03
2023-03-05T18:09:37.005Z,64.31
2023-03-05T18:12:03.493Z,64.53
2023-03-05T18:14:29.861Z,64.52
2023-03-05T18:16:58.068Z,64.65
2023-03-05T18:19:25.151Z,64.37
2023-03-05T18:21:51.940Z,64.11
2023-03-05T18:24:18.316Z,63.71
2023-03-05T18:26:44.730Z,63.78
2023-03-05T18:29:11.483Z,63.57
2023-03-05T18:31:37.851Z,63.09
2023-03-05T18:34:04.234Z,63.99
2023-03-05T18:36:30.658Z,64.48
2023-03-05T18:38:57.019Z,64.66
2023-03-05T18:41:27.631Z,64.30
2023-03-05T18:43:54.663Z,65.02
2023-03-05T18:46:21.207Z,64.92
2023-03-05T18:48:48.106Z,64.83
2023-03-05T18:51:16.596Z,64.45
2023-03-05T18:53:42.965Z,64.91
2023-03-05T18:56:09.884Z,65.07
2023-03-05T18:58:37.034Z,64.74
2023-03-05T19:01:04.202Z,64.46
2023-03-05T19:03:30.633Z,65.05
2023-03-05T19:05:57.134Z,65.02
2023-03-05T19:08:23.496Z,65.30
2023-03-05T19:10:49.929Z,65.61
2023-03-05T19:13:37.149Z,65.55
2023-03-05T19:16:13.423Z,65.74
2023-03-05T19:18:49.697Z,65.69
2023-03-05T19:21:16.057Z,65.66
2023-03-05T19:23:42.422Z,66.39
2023-03-05T19:26:09.146Z,67.28
2023-03-05T19:28:35.517Z,67.00
2023-03-05T19:31:01.988Z,67.83
2023-03-05T19:33:28.394Z,67.60
2023-03-05T19:35:54.815Z,68.42
2023-03-05T19:38:21.241Z,68.75
2023-03-05T19:40:47.771Z,69.06
2023-03-05T19:43:14.193Z,69.16
2023-03-05T19:45:40.624Z,69.43
2023-03-05T19:48:07.225Z,69.60
2023-03-05T19:50:34.609Z,69.55
2023-03-05T19:53:01.126Z,69.88
2023-03-05T19:55:27.534Z,69.61
2023-03-05T19:57:53.898Z,70.44
2023-03-05T20:00:20.570Z,70.58
2023-03-05T20:02:48.542Z,71.08
2023-03-05T20:05:14.928Z,70.66
2023-03-05T20:07:41.287Z,71.33
2023-03-05T20:10:07.940Z,70.67
2023-03-05T20:12:36.284Z,70.78
2023-03-05T20:15:02.765Z,71.45
2023-03-05T20:17:29.127Z,71.31
2023-03-05T20:19:58.853Z,70.93
2023-03-05T20:22:25.252Z,71.90
2023-03-05T20:24:51.646Z,71.17
2023-03-05T20:27:18.011Z,71.08
2023-03-05T20:29:44.382Z,70.93
2023-03-05T20:32:10.787Z,71.22
2023-03-05T20:34:37.146Z,70.69
2023-03-05T20:37:04.925Z,70.87
2023-03-05T20:39:31.294Z,70.68
2023-03-05T20:41:57.689Z,70.29
2023-03-05T20:44:24.141Z,70.16
2023-03-05T20:47:02.541Z,70.16
2023-03-05T20:49:29.171Z,70.47
2023-03-05T20:51:55.757Z,71.15
2023-03-05T20:54:22.240Z,70.71
2023-03-05T20:56:48.638Z,70.67
2023-03-05T20:59:15.434Z,71.14
2023-03-05T21:01:41.894Z,71.54
2023-03-05T21:04:08.738Z,71.58
2023-03-05T21:06:35.712Z,71.79
2023-03-05T21:09:02.292Z,71.17
2023-03-05T21:11:28.666Z,72.30
2023-03-05T21:13:55.253Z,72.90
2023-03-05T21:16:24.569Z,73.53
2023-03-05T21:18:51.849Z,74.00
2023-03-05T21:21:19.116Z,74.69
2023-03-05T21:23:46.122Z,74.73
2023-03-05T21:26:13.480Z,74.76
2023-03-05T21:28:41.048Z,76.26
2023-03-05T21:31:10.013Z,76.90
2023-03-05T21:33:37.066Z,77.62
2023-03-05T21:36:04.574Z,77.86
2023-03-05T21:38:33.801Z,77.79
2023-03-05T21:41:00.324Z,78.31
2023-03-05T21:43:27.436Z,77.71
2023-03-05T21:45:57.182Z,78.84
2023-03-05T21:48:24.619Z,79.26
2023-03-05T21:50:51.161Z,79.34
2023-03-05T21:53:19.013Z,79.12
2023-03-05T21:56:05.342Z,78.59
2023-03-05T21:58:33.222Z,78.08
2023-03-05T22:00:59.832Z,78.09
2023-03-05T22:03:27.546Z,78.08
2023-03-05T22:05:54.965Z,78.23
2023-03-05T22:08:22.930Z,79.15
2023-03-05T22:10:49.345Z,79.59
2023-03-05T22:13:17.729Z,78.85
2023-03-05T22:15:50.572Z,78.69
2023-03-05T22:18:20.474Z,79.22
2023-03-05T22:20:47.939Z,78.27
2023-03-05T22:23:15.352Z,78.75
2023-03-05T22:25:42.408Z,79.96
2023-03-05T22:28:10.578Z,79.82
2023-03-05T22:30:42.835Z,80.45
2023-03-05T22:33:09.675Z,80.48
2023-03-05T22:35:39.046Z,80.27
2023-03-05T22:38:05.476Z,80.07
2023-03-05T22:40:31.875Z,80.21
2023-03-05T22:42:58.246Z,80.06
2023-03-05T22:45:24.599Z,81.54
2023-03-05T22:47:51.411Z,81.29
2023-03-05T22:50:18.298Z,81.54
2023-03-05T22:52:44.817Z,81.24
2023-03-05T22:55:13.489Z,80.71
2023-03-05T22:57:40.312Z,81.78
2023-03-05T23:00:13.243Z,80.46
2023-03-05T23:02:41.530Z,80.28
2023-03-05T23:05:08.755Z,81.17
2023-03-05T23:07:37.510Z,80.11
2023-03-05T23:10:19.486Z,79.48
2023-03-05T23:12:49.954Z,79.76
2023-03-05T23:15:20.063Z,79.29
2023-03-05T23:17:46.632Z,78.56
2023-03-05T23:20:16.746Z,78.05
2023-03-05T23:22:45.077Z,77.36
2023-03-05T23:25:13.368Z,77.06
2023-03-05T23:27:40.637Z,76.61
2023-03-05T23:30:21.628Z,75.83
2023-03-05T23:33:14.044Z,76.49
2023-03-05T23:35:55.243Z,77.01
2023-03-05T23:38:22.576Z,76.68
2023-03-05T23:40:53.495Z,76.85
2023-03-05T23:43:20.857Z,77.18
2023-03-05T23:45:49.210Z,77.29
2023-03-05T23:48:16.584Z,78.24
2023-03-05T23:50:47.618Z,78.21
2023-03-05T23:53:20.446Z,77.29
2023-03-05T23:55:47.706Z,77.24
2023-03-05T23:58:15.892Z,77.52
